createdAt,value
2017-08-24T00:00:36.750Z,100324.56
2017-08-24T00:03:08.089Z,100332.70
2017-08-24T00:05:39.409Z,100331.51
2017-08-24T00:08:11.241Z,100324.74
2017-08-24T00:10:42.574Z,100325.30
2017-08-24T00:13:13.937Z,100327.97
2017-08-24T00:15:45.692Z,100331.63
2017-08-24T00:18:17.620Z,100330.76
2017-08-24T00:20:49.421Z,100333.08
2017-08-24T00:23:21.241Z,100336.19
2017-08-24T00:25:52.935Z,100337.02
2017-08-24T00:28:26.028Z,100336.77
2017-08-24T00:30:57.408Z,100339.52
2017-08-24T00:33:28.763Z,100336.42
2017-08-24T00:36:00.589Z,100329.32
2017-08-24T00:38:31.942Z,100338.80
2017-08-24T00:41:03.715Z,100333.98
2017-08-24T00:43:35.078Z,100330.08
2017-08-24T00:46:06.402Z,100337.78
2017-08-24T00:48:38.223Z,100337.86
2017-08-24T00:51:09.589Z,100344.17
2017-08-24T00:53:41.241Z,100344.78
2017-08-24T00:56:12.918Z,100349.91
2017-08-24T00:58:44.940Z,100352.58
2017-08-24T01:01:16.344Z,100364.53
2017-08-24T01:03:47.687Z,100363.06
2017-08-24T01:06:19.107Z,100364.62
2017-08-24T01:08:50.933Z,100368.21
2017-08-24T01:11:22.433Z,100368.56
2017-08-24T01:13:54.028Z,100367.38
2017-08-24T01:16:27.098Z,100367.50
2017-08-24T01:18:58.465Z,100365.30
2017-08-24T01:21:29.841Z,100362.33
2017-08-24T01:24:01.359Z,100359.19
2017-08-24T01:26:32.724Z,100363.08
2017-08-24T01:29:04.623Z,100371.19
2017-08-24T01:31:36.935Z,100364.12
2017-08-24T01:34:08.289Z,100362.37
2017-08-24T01:36:40.089Z,100352.73
2017-08-24T01:39:11.400Z,100354.70
2017-08-24T01:41:42.713Z,100349.48
2017-08-24T01:44:15.046Z,100354.38
2017-08-24T01:46:55.012Z,100356.84
2017-08-24T01:49:27.406Z,100354.56
2017-08-24T01:51:58.714Z,100352.86
2017-08-24T01:54:31.256Z,100358.38
2017-08-24T01:57:03.316Z,100358.66
2017-08-24T01:59:34.652Z,100359.14
2017-08-24T02:02:06.027Z,100357.06
2017-08-24T02:04:37.339Z,100365.02
2017-08-24T02:07:08.653Z,100359.93
2017-08-24T02:09:40.338Z,100353.05
2017-08-24T02:12:11.920Z,100363.03
2017-08-24T02:14:43.242Z,100366.23
2017-08-24T02:17:14.956Z,100362.97
2017-08-24T02:19:46.412Z,100369.55
2017-08-24T02:22:17.750Z,100371.47
2017-08-24T02:24:49.095Z,100369.71
2017-08-24T02:27:20.401Z,100376.86
2017-08-24T02:29:52.236Z,100375.20
2017-08-24T02:32:23.895Z,100373.84
2017-08-24T02:34:55.369Z,100388.42
2017-08-24T02:37:27.601Z,100387.58
2017-08-24T02:39:58.900Z,100382.52
2017-08-24T02:42:31.615Z,100388.48
2017-08-24T02:45:04.583Z,100386.02
2017-08-24T02:47:36.119Z,100381.48
2017-08-24T02:50:07.441Z,100376.84
2017-08-24T02:52:39.367Z,100379.63
2017-08-24T02:55:11.661Z,100372.34
2017-08-24T02:57:43.288Z,100368.30
2017-08-24T03:00:14.656Z,100367.34
2017-08-24T03:02:45.952Z,100373.17
2017-08-24T03:05:17.657Z,100383.77
2017-08-24T03:07:48.965Z,100377.80
2017-08-24T03:10:20.322Z,100380.12
2017-08-24T03:12:52.082Z,100378.94
2017-08-24T03:15:24.021Z,100379.63
2017-08-24T03:17:55.675Z,100384.00
2017-08-24T03:20:28.269Z,100384.98
2017-08-24T03:22:59.613Z,100386.32
2017-08-24T03:25:31.324Z,100384.39
2017-08-24T03:28:03.903Z,100382.91
2017-08-24T03:30:35.204Z,100384.05
2017-08-24T03:33:06.967Z,100388.69
2017-08-24T03:36:40.528Z,100392.82
2017-08-24T03:39:12.333Z,100392.43
2017-08-24T03:41:43.635Z,100392.87
2017-08-24T03:44:14.939Z,100399.22
2017-08-24T03:46:46.604Z,100398.79
2017-08-24T03:49:17.923Z,100402.73
2017-08-24T03:51:49.526Z,100405.83
2017-08-24T03:54:20.874Z,100404.02
2017-08-24T03:56:52.226Z,100409.23
2017-08-24T03:59:24.908Z,100411.59
2017-08-24T04:01:56.245Z,100413.56
2017-08-24T04:04:28.572Z,100420.03
2017-08-24T04:07:00.335Z,100420.76
2017-08-24T04:09:31.651Z,100422.16
2017-08-24T04:12:04.183Z,100425.54
2017-08-24T04:14:35.528Z,100433.33
2017-08-24T04:17:06.849Z,100432.55
2017-08-24T04:19:38.602Z,100438.39
2017-08-24T04:22:09.960Z,100440.08
2017-08-24T04:24:41.295Z,100437.98
2017-08-24T04:27:12.996Z,100441.08
2017-08-24T04:29:44.326Z,100446.97
2017-08-24T04:32:15.765Z,100447.52
2017-08-24T04:34:47.200Z,100449.67
2017-08-24T04:37:18.484Z,100455.44
2017-08-24T04:39:50.177Z,100448.77
2017-08-24T04:42:21.538Z,100444.97
2017-08-24T04:44:52.842Z,100447.80
2017-08-24T04:47:25.462Z,100446.05
2017-08-24T04:49:56.892Z,100447.44
2017-08-24T04:52:28.207Z,100450.59
2017-08-24T04:54:59.504Z,100462.03
2017-08-24T04:57:31.330Z,100459.21
2017-08-24T05:00:04.018Z,100462.31
2017-08-24T05:02:35.396Z,100466.64
2017-08-24T05:05:06.737Z,100470.71
2017-08-24T05:07:38.514Z,100471.34
2017-08-24T05:10:09.831Z,100474.34
2017-08-24T05:12:41.178Z,100471.41
2017-08-24T05:15:12.568Z,100474.98
2017-08-24T05:17:43.885Z,100483.20
2017-08-24T05:20:16.651Z,100487.91
2017-08-24T05:22:48.235Z,100497.52
2017-08-24T05:25:19.580Z,100495.55
2017-08-24T05:27:51.573Z,100497.80
2017-08-24T05:30:23.934Z,100504.53
2017-08-24T05:32:55.307Z,100507.63
2017-08-24T05:35:27.638Z,100504.63
2017-08-24T05:38:04.307Z,100506.29
2017-08-24T05:40:40.734Z,100503.50
2017-08-24T05:43:12.240Z,100504.52
2017-08-24T05:45:43.540Z,100509.55
2017-08-24T05:48:15.278Z,100515.00
2017-08-24T05:50:46.587Z,100515.58
2017-08-24T05:53:17.904Z,100516.16
2017-08-24T05:55:49.256Z,100524.40
2017-08-24T05:58:20.582Z,100523.91
2017-08-24T06:00:52.471Z,100516.20
2017-08-24T06:03:24.945Z,100517.58
2017-08-24T06:05:56.361Z,100518.09
2017-08-24T06:08:29.501Z,100526.05
2017-08-24T06:11:01.063Z,100526.87
2017-08-24T06:13:32.690Z,100519.70
2017-08-24T06:16:04.874Z,100518.66
2017-08-24T06:18:36.354Z,100522.35
2017-08-24T06:23:38.375Z,100522.72
2017-08-24T06:26:09.783Z,100525.59
2017-08-24T06:28:41.417Z,100518.86
2017-08-24T06:31:12.756Z,100525.42
2017-08-24T06:33:44.535Z,100522.94
2017-08-24T06:36:16.000Z,100522.83
2017-08-24T06:38:47.453Z,100525.84
2017-08-24T06:41:19.192Z,100522.53
2017-08-24T06:43:50.496Z,100529.28
2017-08-24T06:46:22.209Z,100527.91
2017-08-24T06:48:53.883Z,100530.42
2017-08-24T06:51:26.454Z,100533.16
2017-08-24T06:53:58.264Z,100540.72
2017-08-24T06:56:30.069Z,100543.47
2017-08-24T06:59:01.820Z,100540.37
2017-08-24T07:01:33.713Z,100544.17
2017-08-24T07:04:06.087Z,100544.16
2017-08-24T07:06:37.663Z,100549.31
2017-08-24T07:09:09.243Z,100541.14
2017-08-24T07:11:40.554Z,100547.99
2017-08-24T07:14:12.261Z,100544.91
2017-08-24T07:16:44.183Z,100541.96
2017-08-24T07:19:15.681Z,100550.16
2017-08-24T07:21:47.543Z,100553.62
2017-08-24T07:24:19.079Z,100558.41
2017-08-24T07:26:50.700Z,100559.94
2017-08-24T07:29:22.791Z,100553.95
2017-08-24T07:31:54.255Z,100561.88
2017-08-24T07:34:27.399Z,100564.64
2017-08-24T07:36:58.840Z,100566.72
2017-08-24T07:39:30.734Z,100570.33
2017-08-24T07:42:02.545Z,100568.91
2017-08-24T07:44:34.026Z,100565.63
2017-08-24T07:47:05.636Z,100566.91
2017-08-24T07:49:37.333Z,100567.56
2017-08-24T07:52:08.745Z,100572.78
2017-08-24T07:54:40.410Z,100576.89
2017-08-24T07:57:11.736Z,100579.48
2017-08-24T07:59:43.389Z,100578.05
2017-08-24T08:02:14.822Z,100575.20
2017-08-24T08:04:46.127Z,100586.03
2017-08-24T08:07:18.984Z,100579.09
2017-08-24T08:09:51.216Z,100581.92
2017-08-24T08:12:23.206Z,100584.65
2017-08-24T08:14:54.982Z,100586.80
2017-08-24T08:17:27.544Z,100588.77
2017-08-24T08:19:58.878Z,100589.01
2017-08-24T08:22:31.324Z,100588.11
2017-08-24T08:25:03.302Z,100594.02
2017-08-24T08:27:34.899Z,100591.13
2017-08-24T08:30:06.259Z,100592.13
2017-08-24T08:33:07.968Z,100595.25
2017-08-24T08:35:39.616Z,100591.25
2017-08-24T08:38:11.122Z,100591.31
2017-08-24T08:40:42.415Z,100590.13
2017-08-24T08:43:16.111Z,100594.19
2017-08-24T08:45:47.437Z,100592.53
2017-08-24T08:48:18.980Z,100589.35
2017-08-24T08:50:50.353Z,100585.72
2017-08-24T08:53:21.662Z,100583.96
2017-08-24T08:55:53.681Z,100582.65
2017-08-24T08:58:26.965Z,100589.89
2017-08-24T09:00:58.860Z,100584.03
2017-08-24T09:03:30.591Z,100585.58
2017-08-24T09:06:02.666Z,100584.80
2017-08-24T09:08:34.405Z,100584.61
2017-08-24T09:11:05.783Z,100591.00
2017-08-24T09:13:37.124Z,100596.27
2017-08-24T09:16:08.515Z,100585.08
2017-08-24T09:18:39.923Z,100597.71
2017-08-24T09:21:12.802Z,100590.50
2017-08-24T09:23:44.114Z,100588.66
2017-08-24T09:26:15.507Z,100592.94
2017-08-24T09:28:47.096Z,100595.50
2017-08-24T09:31:18.407Z,100592.99
2017-08-24T09:33:49.694Z,100586.09
2017-08-24T09:36:21.010Z,100592.56
2017-08-24T09:38:52.309Z,100589.34
2017-08-24T09:41:24.667Z,100594.32
2017-08-24T09:43:56.003Z,100595.91
2017-08-24T09:46:28.660Z,100595.03
2017-08-24T09:49:00.473Z,100592.63
2017-08-24T09:51:31.855Z,100586.16
2017-08-24T09:54:04.162Z,100594.38
2017-08-24T09:56:35.468Z,100591.38
2017-08-24T09:59:07.011Z,100592.13
2017-08-24T10:01:38.785Z,100595.42
2017-08-24T10:04:10.733Z,100599.61
2017-08-24T10:06:42.041Z,100594.06
2017-08-24T10:09:13.759Z,100589.52
2017-08-24T10:11:45.182Z,100590.66
2017-08-24T10:14:16.855Z,100583.28
2017-08-24T10:16:48.774Z,100594.77
2017-08-24T10:19:20.246Z,100592.76
2017-08-24T10:21:51.918Z,100594.46
2017-08-24T10:24:23.431Z,100596.08
2017-08-24T10:26:55.006Z,100587.91
2017-08-24T10:29:27.816Z,100582.52
2017-08-24T10:31:59.061Z,100582.74
2017-08-24T10:34:30.412Z,100584.55
2017-08-24T10:37:02.076Z,100582.00
2017-08-24T10:39:33.416Z,100577.20
2017-08-24T10:42:05.775Z,100579.25
2017-08-24T10:44:37.119Z,100580.61
2017-08-24T10:47:08.435Z,100582.94
2017-08-24T10:49:40.068Z,100577.43
2017-08-24T10:52:11.444Z,100578.20
2017-08-24T10:54:43.260Z,100576.79
2017-08-24T10:57:14.581Z,100582.41
2017-08-24T10:59:45.859Z,100585.84
2017-08-24T11:02:19.538Z,100582.98
2017-08-24T11:04:51.027Z,100587.65
2017-08-24T11:07:24.041Z,100590.19
2017-08-24T11:10:13.219Z,100592.02
2017-08-24T11:12:50.533Z,100589.41
2017-08-24T11:15:22.261Z,100597.66
2017-08-24T11:17:53.876Z,100599.98
2017-08-24T11:20:26.758Z,100592.12
2017-08-24T11:22:58.277Z,100600.40
2017-08-24T11:25:29.882Z,100599.06
2017-08-24T11:28:01.326Z,100593.05
2017-08-24T11:30:33.068Z,100600.98
2017-08-24T11:33:04.924Z,100602.33
2017-08-24T11:35:36.256Z,100596.67
2017-08-24T11:38:07.670Z,100597.61
2017-08-24T11:40:39.021Z,100598.81
2017-08-24T11:43:10.704Z,100596.99
2017-08-24T11:45:42.192Z,100602.91
2017-08-24T11:48:13.588Z,100604.59
2017-08-24T11:50:44.926Z,100599.87
2017-08-24T11:53:16.556Z,100602.25
2017-08-24T11:55:47.875Z,100613.03
2017-08-24T11:58:19.210Z,100604.42
2017-08-24T12:00:50.864Z,100615.72
2017-08-24T12:03:22.493Z,100612.58
2017-08-24T12:05:56.895Z,100612.44
2017-08-24T12:08:30.837Z,100612.92
2017-08-24T12:11:03.009Z,100612.67
2017-08-24T12:13:34.610Z,100611.23
2017-08-24T12:16:07.836Z,100616.28
2017-08-24T12:18:39.378Z,100613.23
2017-08-24T12:21:11.225Z,100609.60
2017-08-24T12:23:44.194Z,100606.80
2017-08-24T12:26:15.620Z,100604.71
2017-08-24T12:28:47.669Z,100606.75
2017-08-24T12:31:20.443Z,100610.90
2017-08-24T12:33:51.993Z,100611.78
2017-08-24T12:36:24.061Z,100617.25
2017-08-24T12:39:05.307Z,100605.25
2017-08-24T12:41:36.688Z,100617.44
2017-08-24T12:44:09.034Z,100605.93
2017-08-24T12:46:40.705Z,100600.30
2017-08-24T12:49:12.337Z,100607.66
2017-08-24T12:51:43.789Z,100606.58
2017-08-24T12:54:16.189Z,100606.03
2017-08-24T12:56:48.025Z,100610.95
2017-08-24T12:59:19.647Z,100610.67
2017-08-24T13:01:51.674Z,100611.30
2017-08-24T13:04:23.706Z,100609.92
2017-08-24T13:06:55.123Z,100615.64
2017-08-24T13:09:28.492Z,100610.67
2017-08-24T13:11:59.804Z,100602.95
2017-08-24T13:14:32.645Z,100610.13
2017-08-24T13:17:04.366Z,100603.30
2017-08-24T13:19:35.693Z,100614.34
2017-08-24T13:22:07.080Z,100604.89
2017-08-24T13:24:38.703Z,100604.66
2017-08-24T13:27:10.016Z,100601.86
2017-08-24T13:29:41.366Z,100606.97
2017-08-24T13:32:13.005Z,100608.62
2017-08-24T13:34:44.345Z,100604.78
2017-08-24T13:37:15.948Z,100601.69
2017-08-24T13:39:47.394Z,100599.98
2017-08-24T13:42:18.757Z,100607.22
2017-08-24T13:44:50.337Z,100607.39
2017-08-24T13:47:21.634Z,100604.77
2017-08-24T13:49:53.018Z,100602.22
2017-08-24T13:52:25.592Z,100613.45
2017-08-24T13:54:57.033Z,100606.03
2017-08-24T13:57:29.236Z,100606.85
2017-08-24T14:00:01.043Z,100610.37
2017-08-24T14:02:32.541Z,100614.13
2017-08-24T14:05:05.069Z,100611.66
2017-08-24T14:07:36.391Z,100605.69
2017-08-24T14:10:07.981Z,100595.55
2017-08-24T14:12:39.302Z,100597.75
2017-08-24T14:15:10.599Z,100604.22
2017-08-24T14:17:41.937Z,100597.78
2017-08-24T14:20:13.869Z,100603.78
2017-08-24T14:22:45.535Z,100599.80
2017-08-24T14:25:16.849Z,100603.53
2017-08-24T14:27:48.264Z,100596.48
2017-08-24T14:30:19.944Z,100598.36
2017-08-24T14:32:51.550Z,100604.80
2017-08-24T14:35:23.125Z,100603.82
2017-08-24T14:37:55.128Z,100602.55
2017-08-24T14:40:27.460Z,100608.70
2017-08-24T14:42:59.074Z,100611.81
2017-08-24T14:45:30.389Z,100616.34
2017-08-24T14:48:02.632Z,100618.62
2017-08-24T14:50:34.274Z,100609.39
2017-08-24T14:53:05.628Z,100611.30
2017-08-24T14:55:36.958Z,100608.74
2017-08-24T14:58:08.299Z,100606.83
2017-08-24T15:00:39.655Z,100604.92
2017-08-24T15:03:11.266Z,100600.77
2017-08-24T15:05:42.657Z,100598.70
2017-08-24T15:08:13.978Z,100589.66
2017-08-24T15:10:45.638Z,100593.66
2017-08-24T15:13:16.965Z,100595.39
2017-08-24T15:15:48.314Z,100591.62
2017-08-24T15:18:20.570Z,100592.68
2017-08-24T15:20:51.993Z,100590.45
2017-08-24T15:23:24.676Z,100588.22
2017-08-24T15:25:56.404Z,100585.81
2017-08-24T15:28:28.875Z,100584.77
2017-08-24T15:31:00.696Z,100590.66
2017-08-24T15:33:32.061Z,100588.56
2017-08-24T15:36:04.418Z,100597.86
2017-08-24T15:38:35.812Z,100594.87
2017-08-24T15:41:07.139Z,100601.95
2017-08-24T15:43:38.811Z,100600.83
2017-08-24T15:46:10.134Z,100596.92
2017-08-24T15:48:41.452Z,100595.42
2017-08-24T15:51:15.317Z,100597.42
2017-08-24T15:53:46.796Z,100600.34
2017-08-24T15:56:18.370Z,100595.85
2017-08-24T15:58:49.801Z,100599.28
2017-08-24T16:01:21.299Z,100601.55
2017-08-24T16:03:56.311Z,100593.28
2017-08-24T16:06:30.301Z,100592.19
2017-08-24T16:09:02.133Z,100590.14
2017-08-24T16:11:34.009Z,100594.80
2017-08-24T16:14:06.350Z,100591.03
2017-08-24T16:16:37.733Z,100604.59
2017-08-24T16:19:10.708Z,100598.30
2017-08-24T16:21:42.268Z,100602.72
2017-08-24T16:24:25.786Z,100606.47
2017-08-24T16:26:57.462Z,100608.62
2017-08-24T16:29:29.176Z,100606.09
2017-08-24T16:32:01.816Z,100606.94
2017-08-24T16:34:35.231Z,100606.30
2017-08-24T16:37:06.859Z,100610.58
2017-08-24T16:39:38.200Z,100605.13
2017-08-24T16:42:09.627Z,100600.61
2017-08-24T16:44:41.913Z,100603.66
2017-08-24T16:47:13.459Z,100604.36
2017-08-24T16:49:45.109Z,100599.11
2017-08-24T16:52:16.461Z,100611.19
2017-08-24T16:54:48.035Z,100612.06
2017-08-24T16:57:19.784Z,100617.61
2017-08-24T16:59:51.153Z,100611.44
2017-08-24T17:02:22.492Z,100615.67
2017-08-24T17:04:54.590Z,100620.42
2017-08-24T17:07:26.281Z,100621.36
2017-08-24T17:09:57.764Z,100621.72
2017-08-24T17:12:29.434Z,100624.58
2017-08-24T17:15:00.955Z,100625.16
2017-08-24T17:17:35.014Z,100635.34
2017-08-24T17:20:06.692Z,100633.72
2017-08-24T17:22:38.702Z,100638.77
2017-08-24T17:25:10.555Z,100638.48
2017-08-24T17:27:42.349Z,100643.16
2017-08-24T17:30:13.736Z,100653.28
2017-08-24T17:32:45.311Z,100657.19
2017-08-24T17:35:17.004Z,100647.22
2017-08-24T17:37:49.660Z,100654.58
2017-08-24T17:43:18.396Z,100657.25
2017-08-24T17:45:55.573Z,100660.02
2017-08-24T17:48:28.758Z,100651.29
2017-08-24T17:51:00.070Z,100656.48
2017-08-24T17:53:32.296Z,100657.75
2017-08-24T17:56:05.507Z,100660.63
2017-08-24T17:58:37.031Z,100658.42
2017-08-24T18:01:13.944Z,100660.73
2017-08-24T18:03:45.514Z,100655.03
2017-08-24T18:06:17.795Z,100659.77
2017-08-24T18:08:51.822Z,100666.98
2017-08-24T18:11:23.360Z,100662.45
2017-08-24T18:13:55.746Z,100662.80
2017-08-24T18:16:27.205Z,100655.85
2017-08-24T18:18:58.837Z,100657.52
2017-08-24T18:21:36.612Z,100651.94
2017-08-24T18:24:08.236Z,100647.07
2017-08-24T18:26:39.793Z,100640.66
2017-08-24T18:29:11.458Z,100642.86
2017-08-24T18:31:42.855Z,100648.19
2017-08-24T18:34:15.779Z,100656.91
2017-08-24T18:36:47.412Z,100652.31
2017-08-24T18:39:18.800Z,100661.58
2017-08-24T18:41:50.479Z,100664.54
2017-08-24T18:44:23.553Z,100665.22
2017-08-24T18:46:54.952Z,100660.58
2017-08-24T18:49:26.749Z,100662.70
2017-08-24T18:51:58.051Z,100662.86
2017-08-24T18:54:32.300Z,100665.73
2017-08-24T18:57:04.931Z,100668.31
2017-08-24T18:59:38.044Z,100660.43
2017-08-24T19:02:09.349Z,100657.61
2017-08-24T19:04:40.967Z,100657.78
2017-08-24T19:07:12.311Z,100657.39
2017-08-24T19:09:43.958Z,100657.00
2017-08-24T19:12:16.017Z,100654.67
2017-08-24T19:14:47.967Z,100656.27
2017-08-24T19:17:20.685Z,100654.67
2017-08-24T19:19:52.104Z,100652.34
2017-08-24T19:22:24.050Z,100652.41
2017-08-24T19:24:55.729Z,100647.88
2017-08-24T19:27:27.356Z,100644.95
2017-08-24T19:29:58.916Z,100649.22
2017-08-24T19:32:33.061Z,100651.13
2017-08-24T19:35:09.766Z,100648.44
2017-08-24T19:37:41.772Z,100646.59
2017-08-24T19:40:13.132Z,100644.05
2017-08-24T19:42:44.467Z,100642.27
2017-08-24T19:45:16.686Z,100646.30
2017-08-24T19:47:48.004Z,100653.38
2017-08-24T19:50:19.876Z,100646.91
2017-08-24T19:52:51.321Z,100646.41
2017-08-24T19:55:22.831Z,100647.39
2017-08-24T19:57:54.624Z,100649.52
2017-08-24T20:00:26.045Z,100657.34
2017-08-24T20:02:57.535Z,100651.55
2017-08-24T20:05:29.142Z,100661.80
2017-08-24T20:08:00.465Z,100666.89
2017-08-24T20:10:33.144Z,100667.81
2017-08-24T20:13:05.789Z,100668.56
2017-08-24T20:16:39.943Z,100668.45
2017-08-24T20:19:11.521Z,100675.34
2017-08-24T20:21:42.929Z,100675.05
2017-08-24T20:24:14.305Z,100673.97
2017-08-24T20:26:45.703Z,100676.84
2017-08-24T20:29:17.355Z,100672.20
2017-08-24T20:31:49.209Z,100681.02
2017-08-24T20:34:20.513Z,100676.45
2017-08-24T20:36:52.552Z,100674.19
2017-08-24T20:39:24.380Z,100685.05
2017-08-24T20:41:55.824Z,100680.55
2017-08-24T20:44:27.572Z,100671.45
2017-08-24T20:46:59.052Z,100674.23
2017-08-24T20:49:31.487Z,100673.34
2017-08-24T20:52:05.986Z,100669.55
2017-08-24T20:54:43.157Z,100672.17
2017-08-24T20:57:16.114Z,100675.52
2017-08-24T20:59:48.312Z,100677.48
2017-08-24T21:05:45.125Z,100675.89
2017-08-24T21:08:34.319Z,100678.80
2017-08-24T21:11:22.680Z,100681.75
2017-08-24T21:14:11.264Z,100675.70
2017-08-24T21:16:59.023Z,100678.48
2017-08-24T21:19:46.756Z,100680.99
2017-08-24T21:22:24.285Z,100682.64
2017-08-24T21:24:56.837Z,100682.40
2017-08-24T21:27:31.115Z,100677.74
2017-08-24T21:30:07.089Z,100669.75
2017-08-24T21:32:44.441Z,100672.48
2017-08-24T21:35:16.128Z,100679.62
2017-08-24T21:37:55.407Z,100689.80
2017-08-24T21:40:31.675Z,100691.19
2017-08-24T21:43:06.862Z,100686.06
2017-08-24T21:45:42.001Z,100687.42
2017-08-24T21:48:30.870Z,100685.44
2017-08-24T21:51:05.996Z,100682.78
2017-08-24T21:53:39.747Z,100686.66
2017-08-24T21:56:13.386Z,100681.97
2017-08-24T21:58:46.655Z,100686.91
2017-08-24T22:01:20.927Z,100685.86
2017-08-24T22:03:53.294Z,100687.64
2017-08-24T22:09:10.138Z,100689.50
2017-08-24T22:11:41.554Z,100688.75
2017-08-24T22:14:16.569Z,100694.97
2017-08-24T22:16:49.078Z,100693.91
2017-08-24T22:19:21.458Z,100700.78
2017-08-24T22:21:52.795Z,100703.70
2017-08-24T22:24:27.103Z,100707.81
2017-08-24T22:26:59.888Z,100704.96
2017-08-24T22:29:32.637Z,100702.71
2017-08-24T22:32:10.088Z,100702.92
2017-08-24T22:34:41.888Z,100698.92
2017-08-24T22:37:15.095Z,100701.53
2017-08-24T22:39:46.816Z,100700.44
2017-08-24T22:42:18.514Z,100693.80
2017-08-24T22:44:49.937Z,100701.75
2017-08-24T22:47:27.871Z,100704.14
2017-08-24T22:49:59.573Z,100706.38
2017-08-24T22:52:32.636Z,100707.07
2017-08-24T22:57:10.617Z,100709.84
2017-08-24T23:01:49.409Z,100706.27
2017-08-24T23:04:20.852Z,100703.77
2017-08-24T23:06:52.196Z,100708.26
2017-08-24T23:09:25.961Z,100712.11
2017-08-24T23:11:57.940Z,100715.34
2017-08-24T23:14:30.800Z,100718.59
2017-08-24T23:17:03.676Z,100716.21
2017-08-24T23:19:35.285Z,100710.34
2017-08-24T23:22:08.090Z,100716.11
2017-08-24T23:24:40.340Z,100723.08
2017-08-24T23:27:12.676Z,100720.30
2017-08-24T23:29:43.968Z,100725.55
2017-08-24T23:32:15.882Z,100725.49
2017-08-24T23:34:47.223Z,100715.06
2017-08-24T23:37:18.665Z,100717.78
2017-08-24T23:39:52.457Z,100719.84
2017-08-24T23:42:24.727Z,100712.48
2017-08-24T23:44:56.974Z,100719.77
2017-08-24T23:47:31.506Z,100723.14
2017-08-24T23:50:06.835Z,100720.07
2017-08-24T23:52:38.566Z,100711.59
2017-08-24T23:55:11.787Z,100708.22
2017-08-24T23:57:43.852Z,100708.48
